sensor_id;sensor_type;location;lat;lon;timestamp;P1;durP1;ratioP1;P2;durP2;ratioP2
68577;SDS011;61668;45.388;11.784;2023-01-19T00:02:17;37.30;;;18.90;;
68577;SDS011;61668;45.388;11.784;2023-01-19T00:04:44;38.10;;;19.50;;
68577;SDS011;61668;45.388;11.784;2023-01-19T00:07:10;39.60;;;19.10;;
68577;SDS011;61668;45.388;11.784;2023-01-19T00:09:35;36.10;;;17.50;;
68577;SDS011;61668;45.388;11.784;2023-01-19T00:12:03;39.20;;;17.50;;
68577;SDS011;61668;45.388;11.784;2023-01-19T00:14:29;38.70;;;18.80;;
68577;SDS011;61668;45.388;11.784;2023-01-19T00:16:55;43.50;;;20.80;;
68577;SDS011;61668;45.388;11.784;2023-01-19T00:19:20;39.40;;;17.10;;
68577;SDS011;61668;45.388;11.784;2023-01-19T00:21:46;38.60;;;20.00;;
68577;SDS011;61668;45.388;11.784;2023-01-19T00:24:12;41.00;;;20.40;;
68577;SDS011;61668;45.388;11.784;2023-01-19T00:26:39;37.10;;;18.60;;
68577;SDS011;61668;45.388;11.784;2023-01-19T00:29:09;39.10;;;21.30;;
68577;SDS011;61668;45.388;11.784;2023-01-19T00:31:35;39.60;;;19.20;;
68577;SDS011;61668;45.388;11.784;2023-01-19T00:34:01;39.20;;;17.90;;
68577;SDS011;61668;45.388;11.784;2023-01-19T00:36:27;40.00;;;20.00;;
68577;SDS011;61668;45.388;11.784;2023-01-19T00:38:53;40.60;;;19.30;;
68577;SDS011;61668;45.388;11.784;2023-01-19T00:41:19;36.70;;;17.70;;
68577;SDS011;61668;45.388;11.784;2023-01-19T00:44:04;41.80;;;19.10;;
68577;SDS011;61668;45.388;11.784;2023-01-19T00:46:30;35.80;;;18.90;;
68577;SDS011;61668;45.388;11.784;2023-01-19T00:48:55;38.20;;;19.30;;
68577;SDS011;61668;45.388;11.784;2023-01-19T00:51:21;38.00;;;16.70;;
68577;SDS011;61668;45.388;11.784;2023-01-19T00:53:47;35.50;;;17.50;;
68577;SDS011;61668;45.388;11.784;2023-01-19T00:56:12;32.70;;;15.90;;
68577;SDS011;61668;45.388;11.784;2023-01-19T00:58:38;33.50;;;16.90;;
68577;SDS011;61668;45.388;11.784;2023-01-19T01:01:03;36.40;;;18.00;;
68577;SDS011;61668;45.388;11.784;2023-01-19T01:03:30;34.90;;;15.70;;
68577;SDS011;61668;45.388;11.784;2023-01-19T01:05:56;34.30;;;16.40;;
68577;SDS011;61668;45.388;11.784;2023-01-19T01:08:23;33.10;;;15.20;;
68577;SDS011;61668;45.388;11.784;2023-01-19T01:10:49;33.70;;;14.40;;
68577;SDS011;61668;45.388;11.784;2023-01-19T01:13:15;30.40;;;14.10;;
68577;SDS011;61668;45.388;11.784;2023-01-19T01:18:28;26.40;;;12.20;;
68577;SDS011;61668;45.388;11.784;2023-01-19T01:21:04;29.00;;;13.50;;
68577;SDS011;61668;45.388;11.784;2023-01-19T01:23:31;27.30;;;12.60;;
68577;SDS011;61668;45.388;11.784;2023-01-19T01:25:58;28.80;;;13.70;;
68577;SDS011;61668;45.388;11.784;2023-01-19T01:28:23;31.70;;;14.60;;
68577;SDS011;61668;45.388;11.784;2023-01-19T01:30:53;29.10;;;13.50;;
68577;SDS011;61668;45.388;11.784;2023-01-19T01:33:20;30.20;;;13.00;;
68577;SDS011;61668;45.388;11.784;2023-01-19T01:35:47;28.00;;;13.70;;
68577;SDS011;61668;45.388;11.784;2023-01-19T01:38:14;29.40;;;14.10;;
68577;SDS011;61668;45.388;11.784;2023-01-19T01:40:41;29.40;;;13.50;;
68577;SDS011;61668;45.388;11.784;2023-01-19T01:43:15;30.50;;;13.80;;
68577;SDS011;61668;45.388;11.784;2023-01-19T01:45:42;33.50;;;15.30;;
68577;SDS011;61668;45.388;11.784;2023-01-19T01:48:22;35.30;;;14.50;;
68577;SDS011;61668;45.388;11.784;2023-01-19T01:53:57;28.30;;;13.60;;
68577;SDS011;61668;45.388;11.784;2023-01-19T01:56:35;32.50;;;14.20;;
68577;SDS011;61668;45.388;11.784;2023-01-19T01:59:18;31.00;;;13.70;;
68577;SDS011;61668;45.388;11.784;2023-01-19T02:02:02;32.30;;;13.70;;
68577;SDS011;61668;45.388;11.784;2023-01-19T02:04:53;30.80;;;15.40;;
68577;SDS011;61668;45.388;11.784;2023-01-19T02:07:29;33.50;;;14.10;;
68577;SDS011;61668;45.388;11.784;2023-01-19T02:10:19;34.60;;;17.20;;
68577;SDS011;61668;45.388;11.784;2023-01-19T02:13:04;33.90;;;15.60;;
68577;SDS011;61668;45.388;11.784;2023-01-19T02:15:57;28.70;;;13.80;;
68577;SDS011;61668;45.388;11.784;2023-01-19T02:18:26;27.90;;;13.10;;
68577;SDS011;61668;45.388;11.784;2023-01-19T02:26:19;24.80;;;12.40;;
68577;SDS011;61668;45.388;11.784;2023-01-19T02:28:49;21.40;;;11.10;;
68577;SDS011;61668;45.388;11.784;2023-01-19T02:31:18;24.60;;;11.50;;
68577;SDS011;61668;45.388;11.784;2023-01-19T02:33:44;24.10;;;11.00;;
68577;SDS011;61668;45.388;11.784;2023-01-19T02:36:10;25.70;;;12.10;;
68577;SDS011;61668;45.388;11.784;2023-01-19T02:38:38;25.80;;;11.90;;
68577;SDS011;61668;45.388;11.784;2023-01-19T02:41:06;26.20;;;12.40;;
68577;SDS011;61668;45.388;11.784;2023-01-19T02:43:33;24.10;;;11.50;;
68577;SDS011;61668;45.388;11.784;2023-01-19T02:46:00;24.80;;;10.80;;
68577;SDS011;61668;45.388;11.784;2023-01-19T02:48:27;20.60;;;10.40;;
68577;SDS011;61668;45.388;11.784;2023-01-19T02:50:57;23.90;;;11.10;;
68577;SDS011;61668;45.388;11.784;2023-01-19T03:18:19;22.50;;;11.20;;
68577;SDS011;61668;45.388;11.784;2023-01-19T03:20:48;27.10;;;13.20;;
68577;SDS011;61668;45.388;11.784;2023-01-19T03:23:16;27.00;;;12.80;;
68577;SDS011;61668;45.388;11.784;2023-01-19T03:25:45;28.40;;;13.70;;
68577;SDS011;61668;45.388;11.784;2023-01-19T03:28:13;30.60;;;13.80;;
68577;SDS011;61668;45.388;11.784;2023-01-19T03:30:43;27.50;;;13.10;;
68577;SDS011;61668;45.388;11.784;2023-01-19T03:33:21;24.50;;;12.20;;
68577;SDS011;61668;45.388;11.784;2023-01-19T03:35:55;26.30;;;12.20;;
68577;SDS011;61668;45.388;11.784;2023-01-19T03:38:26;26.90;;;12.80;;
68577;SDS011;61668;45.388;11.784;2023-01-19T03:40:57;26.50;;;12.40;;
68577;SDS011;61668;45.388;11.784;2023-01-19T03:43:24;30.80;;;14.20;;
68577;SDS011;61668;45.388;11.784;2023-01-19T03:45:51;33.00;;;15.70;;
68577;SDS011;61668;45.388;11.784;2023-01-19T03:48:19;37.00;;;16.00;;
68577;SDS011;61668;45.388;11.784;2023-01-19T03:50:45;29.50;;;15.30;;
68577;SDS011;61668;45.388;11.784;2023-01-19T03:53:15;30.50;;;14.70;;
68577;SDS011;61668;45.388;11.784;2023-01-19T03:55:44;36.30;;;15.40;;
68577;SDS011;61668;45.388;11.784;2023-01-19T03:58:11;33.50;;;14.90;;
68577;SDS011;61668;45.388;11.784;2023-01-19T04:00:38;32.90;;;15.90;;
68577;SDS011;61668;45.388;11.784;2023-01-19T04:03:04;38.70;;;17.50;;
68577;SDS011;61668;45.388;11.784;2023-01-19T04:05:32;37.50;;;17.00;;
68577;SDS011;61668;45.388;11.784;2023-01-19T04:07:57;42.10;;;18.60;;
68577;SDS011;61668;45.388;11.784;2023-01-19T04:10:23;36.00;;;16.20;;
68577;SDS011;61668;45.388;11.784;2023-01-19T04:12:56;41.70;;;17.90;;
68577;SDS011;61668;45.388;11.784;2023-01-19T04:15:22;38.00;;;18.30;;
68577;SDS011;61668;45.388;11.784;2023-01-19T04:17:48;40.00;;;19.40;;
68577;SDS011;61668;45.388;11.784;2023-01-19T04:20:13;41.70;;;19.20;;
68577;SDS011;61668;45.388;11.784;2023-01-19T04:22:39;47.20;;;20.80;;
68577;SDS011;61668;45.388;11.784;2023-01-19T04:25:06;42.10;;;19.40;;
68577;SDS011;61668;45.388;11.784;2023-01-19T04:27:34;41.90;;;19.30;;
68577;SDS011;61668;45.388;11.784;2023-01-19T04:30:00;49.40;;;19.20;;
68577;SDS011;61668;45.388;11.784;2023-01-19T04:32:28;41.60;;;18.80;;
68577;SDS011;61668;45.388;11.784;2023-01-19T04:34:54;43.30;;;19.10;;
68577;SDS011;61668;45.388;11.784;2023-01-19T04:37:20;44.30;;;19.90;;
68577;SDS011;61668;45.388;11.784;2023-01-19T04:39:46;48.70;;;18.70;;
68577;SDS011;61668;45.388;11.784;2023-01-19T04:42:12;41.80;;;18.60;;
68577;SDS011;61668;45.388;11.784;2023-01-19T04:44:38;42.50;;;19.40;;
68577;SDS011;61668;45.388;11.784;2023-01-19T04:47:03;47.10;;;19.20;;
68577;SDS011;61668;45.388;11.784;2023-01-19T04:49:29;44.60;;;19.30;;
68577;SDS011;61668;45.388;11.784;2023-01-19T04:51:55;47.20;;;20.30;;
68577;SDS011;61668;45.388;11.784;2023-01-19T04:54:21;48.20;;;19.90;;
68577;SDS011;61668;45.388;11.784;2023-01-19T04:56:47;45.20;;;20.50;;
68577;SDS011;61668;45.388;11.784;2023-01-19T04:59:12;41.50;;;19.40;;
68577;SDS011;61668;45.388;11.784;2023-01-19T05:01:38;42.50;;;20.10;;
68577;SDS011;61668;45.388;11.784;2023-01-19T05:04:04;44.50;;;20.20;;
68577;SDS011;61668;45.388;11.784;2023-01-19T05:06:32;46.60;;;20.30;;
68577;SDS011;61668;45.388;11.784;2023-01-19T05:08:58;41.00;;;18.70;;
68577;SDS011;61668;45.388;11.784;2023-01-19T05:11:24;41.30;;;20.10;;
68577;SDS011;61668;45.388;11.784;2023-01-19T05:13:50;46.20;;;20.00;;
68577;SDS011;61668;45.388;11.784;2023-01-19T05:16:16;43.10;;;20.50;;
68577;SDS011;61668;45.388;11.784;2023-01-19T05:18:41;41.80;;;20.20;;
68577;SDS011;61668;45.388;11.784;2023-01-19T05:21:07;39.60;;;18.40;;
68577;SDS011;61668;45.388;11.784;2023-01-19T05:23:33;37.40;;;17.20;;
68577;SDS011;61668;45.388;11.784;2023-01-19T05:26:00;40.60;;;18.10;;
68577;SDS011;61668;45.388;11.784;2023-01-19T05:28:31;40.70;;;18.00;;
68577;SDS011;61668;45.388;11.784;2023-01-19T05:30:57;38.60;;;17.40;;
68577;SDS011;61668;45.388;11.784;2023-01-19T05:33:23;42.40;;;17.10;;
68577;SDS011;61668;45.388;11.784;2023-01-19T05:35:50;44.40;;;19.60;;
68577;SDS011;61668;45.388;11.784;2023-01-19T05:38:17;45.40;;;19.50;;
68577;SDS011;61668;45.388;11.784;2023-01-19T05:40:43;38.20;;;17.70;;
68577;SDS011;61668;45.388;11.784;2023-01-19T05:43:09;40.80;;;17.40;;
68577;SDS011;61668;45.388;11.784;2023-01-19T05:45:35;45.10;;;18.10;;
68577;SDS011;61668;45.388;11.784;2023-01-19T05:48:04;37.30;;;17.10;;
68577;SDS011;61668;45.388;11.784;2023-01-19T05:50:31;37.70;;;17.10;;
68577;SDS011;61668;45.388;11.784;2023-01-19T05:52:57;36.10;;;17.00;;
68577;SDS011;61668;45.388;11.784;2023-01-19T05:55:24;33.10;;;16.10;;
68577;SDS011;61668;45.388;11.784;2023-01-19T05:57:49;36.10;;;15.30;;
68577;SDS011;61668;45.388;11.784;2023-01-19T06:00:15;33.70;;;15.70;;
68577;SDS011;61668;45.388;11.784;2023-01-19T06:02:41;33.80;;;16.00;;
68577;SDS011;61668;45.388;11.784;2023-01-19T06:05:08;33.20;;;16.10;;
68577;SDS011;61668;45.388;11.784;2023-01-19T06:07:34;36.60;;;17.50;;
68577;SDS011;61668;45.388;11.784;2023-01-19T06:09:59;34.40;;;16.60;;
68577;SDS011;61668;45.388;11.784;2023-01-19T06:12:25;40.30;;;20.30;;
68577;SDS011;61668;45.388;11.784;2023-01-19T06:14:51;34.10;;;17.10;;
68577;SDS011;61668;45.388;11.784;2023-01-19T06:17:17;37.20;;;17.00;;
68577;SDS011;61668;45.388;11.784;2023-01-19T06:19:42;65.70;;;34.80;;
68577;SDS011;61668;45.388;11.784;2023-01-19T06:22:08;53.70;;;29.00;;
68577;SDS011;61668;45.388;11.784;2023-01-19T06:24:33;56.00;;;36.20;;
68577;SDS011;61668;45.388;11.784;2023-01-19T06:26:59;59.00;;;35.10;;
68577;SDS011;61668;45.388;11.784;2023-01-19T06:29:28;33.10;;;17.10;;
68577;SDS011;61668;45.388;11.784;2023-01-19T06:31:54;29.60;;;14.00;;
68577;SDS011;61668;45.388;11.784;2023-01-19T06:34:20;26.30;;;11.70;;
68577;SDS011;61668;45.388;11.784;2023-01-19T06:36:45;25.10;;;11.90;;
68577;SDS011;61668;45.388;11.784;2023-01-19T06:39:12;26.60;;;12.60;;
68577;SDS011;61668;45.388;11.784;2023-01-19T06:41:38;28.10;;;12.40;;
68577;SDS011;61668;45.388;11.784;2023-01-19T06:44:04;23.20;;;12.30;;
68577;SDS011;61668;45.388;11.784;2023-01-19T06:46:30;26.90;;;13.00;;
68577;SDS011;61668;45.388;11.784;2023-01-19T06:48:56;23.00;;;11.80;;
68577;SDS011;61668;45.388;11.784;2023-01-19T06:51:22;24.50;;;11.90;;
68577;SDS011;61668;45.388;11.784;2023-01-19T06:53:48;25.90;;;13.10;;
68577;SDS011;61668;45.388;11.784;2023-01-19T06:56:14;24.00;;;11.00;;
68577;SDS011;61668;45.388;11.784;2023-01-19T06:58:40;26.10;;;12.60;;
68577;SDS011;61668;45.388;11.784;2023-01-19T07:01:07;28.90;;;12.40;;
68577;SDS011;61668;45.388;11.784;2023-01-19T07:03:33;24.20;;;11.70;;
68577;SDS011;61668;45.388;11.784;2023-01-19T07:06:00;26.10;;;11.90;;
68577;SDS011;61668;45.388;11.784;2023-01-19T07:08:31;22.90;;;12.30;;
68577;SDS011;61668;45.388;11.784;2023-01-19T07:11:07;27.10;;;12.20;;
68577;SDS011;61668;45.388;11.784;2023-01-19T07:13:35;26.50;;;13.30;;
68577;SDS011;61668;45.388;11.784;2023-01-19T07:16:06;23.30;;;11.80;;
68577;SDS011;61668;45.388;11.784;2023-01-19T07:18:34;23.80;;;10.90;;
68577;SDS011;61668;45.388;11.784;2023-01-19T07:21:04;27.40;;;13.20;;
68577;SDS011;61668;45.388;11.784;2023-01-19T07:23:30;25.90;;;15.70;;
68577;SDS011;61668;45.388;11.784;2023-01-19T07:25:59;12.60;;;5.40;;
68577;SDS011;61668;45.388;11.784;2023-01-19T07:28:26;11.20;;;5.10;;
68577;SDS011;61668;45.388;11.784;2023-01-19T07:30:53;12.10;;;5.40;;
68577;SDS011;61668;45.388;11.784;2023-01-19T07:33:20;13.60;;;6.10;;
68577;SDS011;61668;45.388;11.784;2023-01-19T07:35:47;7.10;;;1.60;;
68577;SDS011;61668;45.388;11.784;2023-01-19T07:38:14;11.70;;;6.00;;
68577;SDS011;61668;45.388;11.784;2023-01-19T07:40:40;8.70;;;3.40;;
68577;SDS011;61668;45.388;11.784;2023-01-19T07:43:06;6.90;;;1.10;;
68577;SDS011;61668;45.388;11.784;2023-01-19T07:45:32;8.70;;;2.40;;
68577;SDS011;61668;45.388;11.784;2023-01-19T07:47:59;5.10;;;0.50;;
68577;SDS011;61668;45.388;11.784;2023-01-19T07:50:25;13.70;;;4.90;;
68577;SDS011;61668;45.388;11.784;2023-01-19T07:52:52;9.00;;;2.40;;
68577;SDS011;61668;45.388;11.784;2023-01-19T07:55:21;8.50;;;3.70;;
68577;SDS011;61668;45.388;11.784;2023-01-19T07:57:51;9.00;;;2.20;;
68577;SDS011;61668;45.388;11.784;2023-01-19T08:00:20;7.50;;;1.90;;
68577;SDS011;61668;45.388;11.784;2023-01-19T08:02:51;16.20;;;8.40;;
68577;SDS011;61668;45.388;11.784;2023-01-19T08:05:18;6.10;;;0.90;;
68577;SDS011;61668;45.388;11.784;2023-01-19T08:07:45;5.60;;;0.70;;
68577;SDS011;61668;45.388;11.784;2023-01-19T08:10:15;5.80;;;1.50;;
68577;SDS011;61668;45.388;11.784;2023-01-19T08:12:41;6.40;;;0.90;;
68577;SDS011;61668;45.388;11.784;2023-01-19T08:15:10;4.60;;;0.30;;
68577;SDS011;61668;45.388;11.784;2023-01-19T08:17:36;7.50;;;1.40;;
68577;SDS011;61668;45.388;11.784;2023-01-19T08:20:03;8.80;;;2.70;;
68577;SDS011;61668;45.388;11.784;2023-01-19T08:22:29;7.20;;;2.10;;
68577;SDS011;61668;45.388;11.784;2023-01-19T08:24:54;7.70;;;3.10;;
68577;SDS011;61668;45.388;11.784;2023-01-19T08:27:20;4.90;;;0.60;;
68577;SDS011;61668;45.388;11.784;2023-01-19T08:29:46;7.90;;;2.40;;
68577;SDS011;61668;45.388;11.784;2023-01-19T08:32:12;4.50;;;0.40;;
68577;SDS011;61668;45.388;11.784;2023-01-19T08:34:37;8.90;;;2.40;;
68577;SDS011;61668;45.388;11.784;2023-01-19T08:37:03;6.10;;;0.70;;
68577;SDS011;61668;45.388;11.784;2023-01-19T08:39:28;5.80;;;1.10;;
68577;SDS011;61668;45.388;11.784;2023-01-19T08:41:54;5.70;;;0.80;;
68577;SDS011;61668;45.388;11.784;2023-01-19T08:44:20;8.60;;;0.60;;
68577;SDS011;61668;45.388;11.784;2023-01-19T08:46:45;6.90;;;1.00;;
68577;SDS011;61668;45.388;11.784;2023-01-19T08:49:11;7.10;;;0.80;;
68577;SDS011;61668;45.388;11.784;2023-01-19T08:51:37;4.80;;;0.20;;
68577;SDS011;61668;45.388;11.784;2023-01-19T08:54:03;6.70;;;0.90;;
68577;SDS011;61668;45.388;11.784;2023-01-19T08:56:29;7.90;;;1.20;;
68577;SDS011;61668;45.388;11.784;2023-01-19T08:58:54;9.30;;;2.00;;
68577;SDS011;61668;45.388;11.784;2023-01-19T09:01:20;8.70;;;2.10;;
68577;SDS011;61668;45.388;11.784;2023-01-19T09:03:47;15.70;;;6.80;;
68577;SDS011;61668;45.388;11.784;2023-01-19T09:06:15;9.30;;;2.20;;
68577;SDS011;61668;45.388;11.784;2023-01-19T09:08:44;6.50;;;1.10;;
68577;SDS011;61668;45.388;11.784;2023-01-19T09:11:11;4.90;;;0.40;;
68577;SDS011;61668;45.388;11.784;2023-01-19T09:13:39;5.10;;;0.40;;
68577;SDS011;61668;45.388;11.784;2023-01-19T09:16:06;5.40;;;0.50;;
68577;SDS011;61668;45.388;11.784;2023-01-19T09:18:34;5.80;;;0.70;;
68577;SDS011;61668;45.388;11.784;2023-01-19T09:21:01;5.60;;;1.00;;
68577;SDS011;61668;45.388;11.784;2023-01-19T09:23:28;5.30;;;0.80;;
68577;SDS011;61668;45.388;11.784;2023-01-19T09:26:01;7.80;;;2.30;;
68577;SDS011;61668;45.388;11.784;2023-01-19T09:28:28;7.10;;;1.70;;
68577;SDS011;61668;45.388;11.784;2023-01-19T09:30:54;4.70;;;0.40;;
68577;SDS011;61668;45.388;11.784;2023-01-19T09:33:20;6.30;;;1.60;;
68577;SDS011;61668;45.388;11.784;2023-01-19T09:35:47;6.70;;;1.70;;
68577;SDS011;61668;45.388;11.784;2023-01-19T09:38:15;5.80;;;0.40;;
68577;SDS011;61668;45.388;11.784;2023-01-19T09:40:43;6.50;;;0.90;;
68577;SDS011;61668;45.388;11.784;2023-01-19T09:45:57;7.70;;;1.10;;
68577;SDS011;61668;45.388;11.784;2023-01-19T09:48:45;8.10;;;1.50;;
68577;SDS011;61668;45.388;11.784;2023-01-19T09:51:18;7.60;;;1.50;;
68577;SDS011;61668;45.388;11.784;2023-01-19T09:53:54;5.20;;;0.50;;
68577;SDS011;61668;45.388;11.784;2023-01-19T09:56:29;6.40;;;0.60;;
68577;SDS011;61668;45.388;11.784;2023-01-19T09:58:57;12.50;;;4.60;;
68577;SDS011;61668;45.388;11.784;2023-01-19T10:01:36;8.60;;;1.80;;
68577;SDS011;61668;45.388;11.784;2023-01-19T10:06:45;12.00;;;5.30;;
68577;SDS011;61668;45.388;11.784;2023-01-19T10:09:21;12.70;;;3.90;;
68577;SDS011;61668;45.388;11.784;2023-01-19T10:11:56;7.80;;;1.40;;
68577;SDS011;61668;45.388;11.784;2023-01-19T10:14:37;4.80;;;0.30;;
68577;SDS011;61668;45.388;11.784;2023-01-19T10:19:52;12.30;;;2.90;;
68577;SDS011;61668;45.388;11.784;2023-01-19T10:22:25;17.30;;;5.00;;
68577;SDS011;61668;45.388;11.784;2023-01-19T10:24:55;14.40;;;4.20;;
68577;SDS011;61668;45.388;11.784;2023-01-19T10:27:26;12.90;;;3.90;;
68577;SDS011;61668;45.388;11.784;2023-01-19T10:29:53;9.60;;;2.70;;
68577;SDS011;61668;45.388;11.784;2023-01-19T10:32:24;5.80;;;0.60;;
68577;SDS011;61668;45.388;11.784;2023-01-19T10:34:52;6.10;;;0.90;;
68577;SDS011;61668;45.388;11.784;2023-01-19T10:42:55;5.50;;;1.00;;
68577;SDS011;61668;45.388;11.784;2023-01-19T10:45:24;8.00;;;2.00;;
68577;SDS011;61668;45.388;11.784;2023-01-19T10:47:58;8.00;;;1.30;;
68577;SDS011;61668;45.388;11.784;2023-01-19T10:50:31;52.90;;;32.10;;
68577;SDS011;61668;45.388;11.784;2023-01-19T10:53:00;18.40;;;10.30;;
68577;SDS011;61668;45.388;11.784;2023-01-19T10:55:36;9.70;;;2.70;;
68577;SDS011;61668;45.388;11.784;2023-01-19T10:58:05;8.20;;;2.40;;
68577;SDS011;61668;45.388;11.784;2023-01-19T11:00:39;13.70;;;5.20;;
68577;SDS011;61668;45.388;11.784;2023-01-19T11:03:24;7.80;;;2.10;;
68577;SDS011;61668;45.388;11.784;2023-01-19T11:06:17;9.40;;;3.90;;
68577;SDS011;61668;45.388;11.784;2023-01-19T11:08:46;11.60;;;6.10;;
68577;SDS011;61668;45.388;11.784;2023-01-19T11:11:14;17.50;;;8.50;;
68577;SDS011;61668;45.388;11.784;2023-01-19T11:13:41;12.00;;;3.80;;
68577;SDS011;61668;45.388;11.784;2023-01-19T11:18:50;10.60;;;3.60;;
68577;SDS011;61668;45.388;11.784;2023-01-19T11:21:24;8.30;;;1.40;;
68577;SDS011;61668;45.388;11.784;2023-01-19T11:26:39;7.30;;;1.70;;
68577;SDS011;61668;45.388;11.784;2023-01-19T11:29:33;13.70;;;8.20;;
68577;SDS011;61668;45.388;11.784;2023-01-19T11:32:11;4.70;;;0.80;;
68577;SDS011;61668;45.388;11.784;2023-01-19T11:34:44;2.10;;;0.10;;
68577;SDS011;61668;45.388;11.784;2023-01-19T11:39:49;9.80;;;3.50;;
68577;SDS011;61668;45.388;11.784;2023-01-19T11:42:17;14.10;;;4.10;;
68577;SDS011;61668;45.388;11.784;2023-01-19T11:44:58;9.40;;;2.90;;
68577;SDS011;61668;45.388;11.784;2023-01-19T11:47:26;10.00;;;3.40;;
68577;SDS011;61668;45.388;11.784;2023-01-19T11:50:21;6.60;;;1.50;;
68577;SDS011;61668;45.388;11.784;2023-01-19T11:58:16;5.90;;;0.40;;
68577;SDS011;61668;45.388;11.784;2023-01-19T12:06:18;21.30;;;4.90;;
68577;SDS011;61668;45.388;11.784;2023-01-19T12:08:51;19.50;;;4.30;;
68577;SDS011;61668;45.388;11.784;2023-01-19T12:11:33;19.40;;;5.40;;
68577;SDS011;61668;45.388;11.784;2023-01-19T12:14:00;9.60;;;1.40;;
68577;SDS011;61668;45.388;11.784;2023-01-19T12:16:31;15.60;;;3.20;;
68577;SDS011;61668;45.388;11.784;2023-01-19T12:19:33;21.50;;;7.20;;
68577;SDS011;61668;45.388;11.784;2023-01-19T12:22:12;9.10;;;3.10;;
68577;SDS011;61668;45.388;11.784;2023-01-19T12:25:01;11.50;;;2.80;;
68577;SDS011;61668;45.388;11.784;2023-01-19T12:27:40;9.50;;;1.70;;
68577;SDS011;61668;45.388;11.784;2023-01-19T12:30:20;12.40;;;3.10;;
68577;SDS011;61668;45.388;11.784;2023-01-19T12:32:47;8.40;;;1.30;;
68577;SDS011;61668;45.388;11.784;2023-01-19T12:38:55;7.50;;;1.30;;
68577;SDS011;61668;45.388;11.784;2023-01-19T12:46:43;8.60;;;2.40;;
68577;SDS011;61668;45.388;11.784;2023-01-19T12:49:40;10.50;;;2.00;;
68577;SDS011;61668;45.388;11.784;2023-01-19T12:55:15;7.60;;;0.60;;
68577;SDS011;61668;45.388;11.784;2023-01-19T13:01:12;8.50;;;0.90;;
68577;SDS011;61668;45.388;11.784;2023-01-19T13:04:05;5.10;;;0.40;;
68577;SDS011;61668;45.388;11.784;2023-01-19T13:09:29;8.70;;;0.80;;
68577;SDS011;61668;45.388;11.784;2023-01-19T13:14:38;23.40;;;8.60;;
68577;SDS011;61668;45.388;11.784;2023-01-19T13:19:42;9.10;;;2.00;;
68577;SDS011;61668;45.388;11.784;2023-01-19T13:22:48;10.30;;;3.90;;
68577;SDS011;61668;45.388;11.784;2023-01-19T13:25:32;13.90;;;5.20;;
68577;SDS011;61668;45.388;11.784;2023-01-19T13:28:00;102.20;;;40.30;;
68577;SDS011;61668;45.388;11.784;2023-01-19T13:30:27;18.60;;;6.40;;
68577;SDS011;61668;45.388;11.784;2023-01-19T13:32:56;6.10;;;1.00;;
68577;SDS011;61668;45.388;11.784;2023-01-19T13:35:28;6.10;;;0.70;;
68577;SDS011;61668;45.388;11.784;2023-01-19T13:37:53;6.40;;;0.80;;
68577;SDS011;61668;45.388;11.784;2023-01-19T13:40:23;12.50;;;4.40;;
68577;SDS011;61668;45.388;11.784;2023-01-19T13:42:52;6.30;;;0.80;;
68577;SDS011;61668;45.388;11.784;2023-01-19T13:45:26;6.50;;;0.80;;
68577;SDS011;61668;45.388;11.784;2023-01-19T13:47:55;7.60;;;1.10;;
68577;SDS011;61668;45.388;11.784;2023-01-19T13:50:30;5.80;;;1.00;;
68577;SDS011;61668;45.388;11.784;2023-01-19T13:52:59;6.30;;;0.70;;
68577;SDS011;61668;45.388;11.784;2023-01-19T13:55:29;8.80;;;4.00;;
68577;SDS011;61668;45.388;11.784;2023-01-19T13:57:56;7.90;;;2.40;;
68577;SDS011;61668;45.388;11.784;2023-01-19T14:00:28;8.80;;;4.00;;
68577;SDS011;61668;45.388;11.784;2023-01-19T14:03:20;6.80;;;1.30;;
68577;SDS011;61668;45.388;11.784;2023-01-19T14:05:52;11.60;;;2.70;;
68577;SDS011;61668;45.388;11.784;2023-01-19T14:08:19;9.20;;;3.20;;
68577;SDS011;61668;45.388;11.784;2023-01-19T14:13:23;11.40;;;3.30;;
68577;SDS011;61668;45.388;11.784;2023-01-19T14:15:52;9.20;;;2.60;;
68577;SDS011;61668;45.388;11.784;2023-01-19T14:32:40;7.60;;;1.70;;
68577;SDS011;61668;45.388;11.784;2023-01-19T14:34:35;5.50;;;0.50;;
68577;SDS011;61668;45.388;11.784;2023-01-19T14:42:49;12.30;;;4.80;;
68577;SDS011;61668;45.388;11.784;2023-01-19T14:45:22;5.10;;;0.70;;
68577;SDS011;61668;45.388;11.784;2023-01-19T14:48:01;5.10;;;0.50;;
68577;SDS011;61668;45.388;11.784;2023-01-19T14:50:35;5.80;;;0.70;;
68577;SDS011;61668;45.388;11.784;2023-01-19T14:53:13;5.10;;;0.50;;
68577;SDS011;61668;45.388;11.784;2023-01-19T14:55:57;6.70;;;0.90;;
68577;SDS011;61668;45.388;11.784;2023-01-19T14:58:32;7.60;;;1.40;;
68577;SDS011;61668;45.388;11.784;2023-01-19T15:00:58;6.80;;;0.80;;
68577;SDS011;61668;45.388;11.784;2023-01-19T15:03:26;6.20;;;0.60;;
68577;SDS011;61668;45.388;11.784;2023-01-19T15:05:56;6.40;;;1.00;;
68577;SDS011;61668;45.388;11.784;2023-01-19T15:08:26;6.50;;;0.80;;
68577;SDS011;61668;45.388;11.784;2023-01-19T15:10:54;6.00;;;0.70;;
68577;SDS011;61668;45.388;11.784;2023-01-19T15:13:23;7.70;;;1.40;;
68577;SDS011;61668;45.388;11.784;2023-01-19T15:15:50;10.50;;;2.20;;
68577;SDS011;61668;45.388;11.784;2023-01-19T15:18:21;8.10;;;2.00;;
68577;SDS011;61668;45.388;11.784;2023-01-19T15:20:49;6.90;;;1.30;;
68577;SDS011;61668;45.388;11.784;2023-01-19T15:23:14;6.30;;;1.20;;
68577;SDS011;61668;45.388;11.784;2023-01-19T15:25:40;6.50;;;1.20;;
68577;SDS011;61668;45.388;11.784;2023-01-19T15:28:18;7.90;;;1.20;;
68577;SDS011;61668;45.388;11.784;2023-01-19T15:30:44;7.90;;;1.70;;
68577;SDS011;61668;45.388;11.784;2023-01-19T15:33:19;7.00;;;1.30;;
68577;SDS011;61668;45.388;11.784;2023-01-19T15:35:49;8.00;;;1.80;;
68577;SDS011;61668;45.388;11.784;2023-01-19T15:38:15;8.40;;;1.20;;
68577;SDS011;61668;45.388;11.784;2023-01-19T15:40:40;9.60;;;2.60;;
68577;SDS011;61668;45.388;11.784;2023-01-19T15:43:09;10.00;;;2.30;;
68577;SDS011;61668;45.388;11.784;2023-01-19T15:45:36;10.40;;;3.30;;
68577;SDS011;61668;45.388;11.784;2023-01-19T15:48:08;10.20;;;2.60;;
68577;SDS011;61668;45.388;11.784;2023-01-19T15:50:38;10.60;;;3.20;;
68577;SDS011;61668;45.388;11.784;2023-01-19T15:53:06;8.70;;;2.50;;
68577;SDS011;61668;45.388;11.784;2023-01-19T15:55:37;10.50;;;3.60;;
68577;SDS011;61668;45.388;11.784;2023-01-19T15:58:02;15.00;;;5.90;;
68577;SDS011;61668;45.388;11.784;2023-01-19T16:00:32;14.10;;;5.30;;
68577;SDS011;61668;45.388;11.784;2023-01-19T16:03:00;13.80;;;4.80;;
68577;SDS011;61668;45.388;11.784;2023-01-19T16:05:26;9.80;;;3.00;;
68577;SDS011;61668;45.388;11.784;2023-01-19T16:07:52;12.10;;;3.90;;
68577;SDS011;61668;45.388;11.784;2023-01-19T16:10:18;9.70;;;2.60;;
68577;SDS011;61668;45.388;11.784;2023-01-19T16:12:44;7.90;;;1.60;;
68577;SDS011;61668;45.388;11.784;2023-01-19T16:15:12;14.60;;;5.80;;
68577;SDS011;61668;45.388;11.784;2023-01-19T16:17:39;12.30;;;3.80;;
68577;SDS011;61668;45.388;11.784;2023-01-19T16:20:05;19.70;;;7.90;;
68577;SDS011;61668;45.388;11.784;2023-01-19T16:22:31;12.00;;;3.10;;
68577;SDS011;61668;45.388;11.784;2023-01-19T16:24:57;8.80;;;2.90;;
68577;SDS011;61668;45.388;11.784;2023-01-19T16:27:23;9.60;;;2.20;;
68577;SDS011;61668;45.388;11.784;2023-01-19T16:29:49;8.30;;;1.60;;